Search for airport 
image banner adimage banner adimage banner ad
image banner ad

8N4 - Flying Dollar

Located in Canadensis, United States

ICAO - 8N4, IATA -

Data provided by Airmate  

General information

Coordinates: N41°12'54" W75°14'49"
Elevation is 1430 feet MSL.
Magnetic variation is -12° East
View others Airports in Pennsylvania

Operational data

Special qualification required
Current time UTC:
Current local time:
Weather at : KMPO - Pocono Mountains Muni ( 14 km )
METAR: KMPO 182253Z AUTO 30009KT 10SM CLR 22/05 A3027 RMK AO2 SLP247 T02170050
View NOTAMs / SUP AIP / TFR affecting this airport [VIEW]
Communications frequencies: [VIEW]

Runways:

RWY identifierQFULength (ft)Width (ft)SurfaceLDA (ft)
022405100GRASS
20188°2405100GRASS

Airport contact information

Address: Canadensis United States

Satellite view of 8N4